sensor_id;sensor_type;location;lat;lon;timestamp;pressure;altitude;pressure_sealevel;temperature;humidity
57376;BME280;44805;45.048;5.062;2022-12-24T00:55:06;99833.31;;;10.26;100.00
57376;BME280;44805;45.048;5.062;2022-12-24T00:57:32;99819.59;;;10.32;100.00
57376;BME280;44805;45.048;5.062;2022-12-24T01:00:02;99820.28;;;10.24;100.00
57376;BME280;44805;45.048;5.062;2022-12-24T01:02:30;99835.94;;;10.26;100.00
57376;BME280;44805;45.048;5.062;2022-12-24T01:15:01;99893.88;;;10.63;100.00
57376;BME280;44805;45.048;5.062;2022-12-24T01:17:30;99818.63;;;10.33;100.00
57376;BME280;44805;45.048;5.062;2022-12-24T01:33:22;99940.22;;;11.11;100.00
57376;BME280;44805;45.048;5.062;2022-12-24T01:39:09;99924.28;;;10.85;100.00
57376;BME280;44805;45.048;5.062;2022-12-24T01:41:35;99976.25;;;11.20;100.00
57376;BME280;44805;45.048;5.062;2022-12-24T01:44:31;99821.41;;;10.31;100.00
57376;BME280;44805;45.048;5.062;2022-12-24T01:47:14;99833.06;;;10.29;100.00
57376;BME280;44805;45.048;5.062;2022-12-24T01:53:07;99889.03;;;10.86;100.00
57376;BME280;44805;45.048;5.062;2022-12-24T01:55:38;99895.09;;;10.96;100.00
57376;BME280;44805;45.048;5.062;2022-12-24T01:58:09;99849.06;;;10.73;100.00
57376;BME280;44805;45.048;5.062;2022-12-24T02:00:46;99936.91;;;11.09;100.00
57376;BME280;44805;45.048;5.062;2022-12-24T02:03:12;99976.59;;;11.35;100.00
57376;BME280;44805;45.048;5.062;2022-12-24T02:12:29;99874.84;;;10.41;100.00
57376;BME280;44805;45.048;5.062;2022-12-24T02:14:58;99905.41;;;10.52;100.00
57376;BME280;44805;45.048;5.062;2022-12-24T02:17:56;99992.13;;;11.01;100.00
57376;BME280;44805;45.048;5.062;2022-12-24T02:24:10;99990.16;;;11.13;100.00
57376;BME280;44805;45.048;5.062;2022-12-24T02:30:13;99979.06;;;11.09;100.00
57376;BME280;44805;45.048;5.062;2022-12-24T02:33:24;99986.84;;;11.11;100.00
57376;BME280;44805;45.048;5.062;2022-12-24T02:38:49;99903.28;;;10.65;100.00
57376;BME280;44805;45.048;5.062;2022-12-24T02:41:21;99855.19;;;10.26;100.00
57376;BME280;44805;45.048;5.062;2022-12-24T02:43:49;99929.63;;;10.65;100.00
57376;BME280;44805;45.048;5.062;2022-12-24T02:46:21;99862.69;;;10.31;100.00
57376;BME280;44805;45.048;5.062;2022-12-24T02:48:54;99868.47;;;10.25;100.00
57376;BME280;44805;45.048;5.062;2022-12-24T02:54:36;99875.69;;;10.32;100.00
57376;BME280;44805;45.048;5.062;2022-12-24T02:57:12;99991.28;;;11.10;100.00
57376;BME280;44805;45.048;5.062;2022-12-24T03:02:28;99994.63;;;11.02;100.00
57376;BME280;44805;45.048;5.062;2022-12-24T03:05:12;99866.28;;;10.20;100.00
57376;BME280;44805;45.048;5.062;2022-12-24T03:07:55;99994.59;;;11.12;100.00
57376;BME280;44805;45.048;5.062;2022-12-24T03:13:16;99848.66;;;10.40;100.00
57376;BME280;44805;45.048;5.062;2022-12-24T03:15:44;99822.78;;;10.26;100.00
57376;BME280;44805;45.048;5.062;2022-12-24T03:18:15;99830.81;;;10.34;100.00
57376;BME280;44805;45.048;5.062;2022-12-24T03:21:26;99845.91;;;10.32;100.00
57376;BME280;44805;45.048;5.062;2022-12-24T03:23:44;99845.50;;;10.27;100.00
57376;BME280;44805;45.048;5.062;2022-12-24T03:26:11;99904.66;;;10.70;100.00
57376;BME280;44805;45.048;5.062;2022-12-24T03:28:41;99826.97;;;10.28;100.00
57376;BME280;44805;45.048;5.062;2022-12-24T03:31:10;99825.44;;;10.26;100.00
57376;BME280;44805;45.048;5.062;2022-12-24T03:33:36;99824.88;;;10.32;100.00
57376;BME280;44805;45.048;5.062;2022-12-24T03:36:03;99892.53;;;10.86;100.00
57376;BME280;44805;45.048;5.062;2022-12-24T03:38:29;99853.31;;;10.56;100.00
57376;BME280;44805;45.048;5.062;2022-12-24T03:40:54;99872.84;;;10.81;100.00
57376;BME280;44805;45.048;5.062;2022-12-24T03:43:22;99808.00;;;10.52;100.00
57376;BME280;44805;45.048;5.062;2022-12-24T03:45:48;99883.50;;;10.89;100.00
57376;BME280;44805;45.048;5.062;2022-12-24T03:48:15;99912.44;;;11.17;100.00
57376;BME280;44805;45.048;5.062;2022-12-24T03:50:43;99879.47;;;11.13;100.00
57376;BME280;44805;45.048;5.062;2022-12-24T03:53:14;99793.50;;;10.48;100.00
57376;BME280;44805;45.048;5.062;2022-12-24T03:55:40;99797.94;;;10.65;100.00
57376;BME280;44805;45.048;5.062;2022-12-24T03:58:06;99853.25;;;10.93;100.00
57376;BME280;44805;45.048;5.062;2022-12-24T04:00:35;99821.00;;;10.63;100.00
57376;BME280;44805;45.048;5.062;2022-12-24T04:03:00;99892.94;;;10.92;100.00
57376;BME280;44805;45.048;5.062;2022-12-24T04:05:26;99837.75;;;10.62;100.00
57376;BME280;44805;45.048;5.062;2022-12-24T04:07:51;99824.28;;;10.65;100.00
57376;BME280;44805;45.048;5.062;2022-12-24T04:10:17;99827.50;;;10.59;100.00
57376;BME280;44805;45.048;5.062;2022-12-24T04:12:43;99813.88;;;10.46;100.00
57376;BME280;44805;45.048;5.062;2022-12-24T04:15:09;99833.81;;;10.49;100.00
57376;BME280;44805;45.048;5.062;2022-12-24T04:17:34;99914.84;;;10.82;100.00
57376;BME280;44805;45.048;5.062;2022-12-24T04:20:00;99832.75;;;10.32;100.00
57376;BME280;44805;45.048;5.062;2022-12-24T04:25:47;99831.25;;;10.29;100.00
57376;BME280;44805;45.048;5.062;2022-12-24T04:28:13;99789.34;;;10.08;100.00
57376;BME280;44805;45.048;5.062;2022-12-24T04:30:46;99926.63;;;10.88;100.00
57376;BME280;44805;45.048;5.062;2022-12-24T04:33:12;99899.09;;;10.73;100.00
57376;BME280;44805;45.048;5.062;2022-12-24T04:36:00;99951.88;;;11.08;100.00
57376;BME280;44805;45.048;5.062;2022-12-24T04:38:26;99823.44;;;10.37;100.00
57376;BME280;44805;45.048;5.062;2022-12-24T04:41:04;99918.84;;;11.14;100.00
57376;BME280;44805;45.048;5.062;2022-12-24T04:43:30;99812.75;;;10.49;100.00
57376;BME280;44805;45.048;5.062;2022-12-24T04:46:05;99799.38;;;10.32;100.00
57376;BME280;44805;45.048;5.062;2022-12-24T04:48:33;99808.78;;;10.25;100.00
57376;BME280;44805;45.048;5.062;2022-12-24T04:54:21;99826.97;;;10.28;100.00
57376;BME280;44805;45.048;5.062;2022-12-24T04:56:47;99810.06;;;10.21;100.00
57376;BME280;44805;45.048;5.062;2022-12-24T04:59:12;99804.94;;;10.19;100.00
57376;BME280;44805;45.048;5.062;2022-12-24T05:01:38;99811.88;;;10.20;100.00
57376;BME280;44805;45.048;5.062;2022-12-24T05:04:04;99819.91;;;10.19;100.00
57376;BME280;44805;45.048;5.062;2022-12-24T05:10:05;99803.75;;;10.04;100.00
57376;BME280;44805;45.048;5.062;2022-12-24T05:12:31;99898.94;;;10.47;100.00
57376;BME280;44805;45.048;5.062;2022-12-24T05:14:56;99906.41;;;10.51;100.00
57376;BME280;44805;45.048;5.062;2022-12-24T05:17:22;99810.44;;;9.89;100.00
57376;BME280;44805;45.048;5.062;2022-12-24T05:19:48;99848.97;;;10.17;100.00
57376;BME280;44805;45.048;5.062;2022-12-24T05:22:25;99849.03;;;9.98;100.00
57376;BME280;44805;45.048;5.062;2022-12-24T05:25:09;99972.72;;;10.64;100.00
57376;BME280;44805;45.048;5.062;2022-12-24T05:27:53;99973.53;;;10.75;100.00
57376;BME280;44805;45.048;5.062;2022-12-24T05:30:19;99837.94;;;10.04;100.00
57376;BME280;44805;45.048;5.062;2022-12-24T05:32:45;99850.41;;;10.02;100.00
57376;BME280;44805;45.048;5.062;2022-12-24T05:35:11;99853.16;;;10.10;100.00
57376;BME280;44805;45.048;5.062;2022-12-24T05:40:58;99854.69;;;10.13;100.00
57376;BME280;44805;45.048;5.062;2022-12-24T05:43:24;99829.22;;;10.04;100.00
57376;BME280;44805;45.048;5.062;2022-12-24T05:45:59;99857.97;;;10.25;100.00
57376;BME280;44805;45.048;5.062;2022-12-24T05:48:27;99857.56;;;10.19;100.00
57376;BME280;44805;45.048;5.062;2022-12-24T05:50:54;99834.19;;;10.07;100.00
57376;BME280;44805;45.048;5.062;2022-12-24T05:53:20;99880.41;;;10.38;100.00
57376;BME280;44805;45.048;5.062;2022-12-24T05:55:46;99895.06;;;10.51;100.00
57376;BME280;44805;45.048;5.062;2022-12-24T05:58:12;99890.47;;;10.43;100.00
57376;BME280;44805;45.048;5.062;2022-12-24T06:00:37;99828.38;;;10.13;100.00
57376;BME280;44805;45.048;5.062;2022-12-24T06:03:03;99829.19;;;10.13;100.00
57376;BME280;44805;45.048;5.062;2022-12-24T06:05:29;99820.03;;;10.17;100.00
57376;BME280;44805;45.048;5.062;2022-12-24T06:11:24;99798.31;;;10.15;100.00
57376;BME280;44805;45.048;5.062;2022-12-24T06:14:17;99799.84;;;10.18;100.00
57376;BME280;44805;45.048;5.062;2022-12-24T06:16:43;99830.50;;;10.47;100.00
57376;BME280;44805;45.048;5.062;2022-12-24T06:19:09;99817.66;;;10.24;100.00
57376;BME280;44805;45.048;5.062;2022-12-24T06:25:24;99933.19;;;10.74;100.00
57376;BME280;44805;45.048;5.062;2022-12-24T06:27:49;99834.06;;;10.08;100.00
57376;BME280;44805;45.048;5.062;2022-12-24T06:30:15;99799.91;;;9.89;100.00
57376;BME280;44805;45.048;5.062;2022-12-24T06:32:40;99878.59;;;10.39;100.00
57376;BME280;44805;45.048;5.062;2022-12-24T06:35:06;99805.88;;;9.91;100.00
57376;BME280;44805;45.048;5.062;2022-12-24T06:40:53;99860.25;;;10.00;100.00
57376;BME280;44805;45.048;5.062;2022-12-24T06:43:20;99848.94;;;9.90;100.00
57376;BME280;44805;45.048;5.062;2022-12-24T06:45:46;99873.53;;;9.98;100.00
57376;BME280;44805;45.048;5.062;2022-12-24T06:48:13;99798.31;;;9.49;100.00
57376;BME280;44805;45.048;5.062;2022-12-24T06:50:39;99869.69;;;9.93;100.00
57376;BME280;44805;45.048;5.062;2022-12-24T06:53:36;99908.69;;;10.07;100.00
57376;BME280;44805;45.048;5.062;2022-12-24T06:56:07;99789.22;;;9.14;100.00
57376;BME280;44805;45.048;5.062;2022-12-24T06:58:34;99843.97;;;9.57;100.00
57376;BME280;44805;45.048;5.062;2022-12-24T07:01:00;99775.09;;;9.15;100.00
57376;BME280;44805;45.048;5.062;2022-12-24T07:03:27;99831.53;;;9.50;100.00
57376;BME280;44805;45.048;5.062;2022-12-24T07:05:52;99836.38;;;9.45;100.00
57376;BME280;44805;45.048;5.062;2022-12-24T07:08:21;99836.38;;;9.45;100.00
57376;BME280;44805;45.048;5.062;2022-12-24T07:10:48;99818.25;;;9.42;100.00
57376;BME280;44805;45.048;5.062;2022-12-24T07:13:14;99874.00;;;9.74;100.00
57376;BME280;44805;45.048;5.062;2022-12-24T07:15:40;99874.00;;;9.65;100.00
57376;BME280;44805;45.048;5.062;2022-12-24T07:18:06;99831.41;;;9.42;100.00
57376;BME280;44805;45.048;5.062;2022-12-24T07:20:31;99836.09;;;9.48;100.00
57376;BME280;44805;45.048;5.062;2022-12-24T07:26:03;99881.03;;;9.84;100.00
57376;BME280;44805;45.048;5.062;2022-12-24T07:28:29;99886.56;;;9.90;100.00
57376;BME280;44805;45.048;5.062;2022-12-24T07:47:09;99800.13;;;9.48;100.00
57376;BME280;44805;45.048;5.062;2022-12-24T07:49:34;99876.34;;;9.87;100.00
57376;BME280;44805;45.048;5.062;2022-12-24T07:55:37;99823.50;;;9.22;100.00
57376;BME280;44805;45.048;5.062;2022-12-24T07:58:13;99828.91;;;9.11;100.00
57376;BME280;44805;45.048;5.062;2022-12-24T08:00:41;99845.63;;;9.20;100.00
57376;BME280;44805;45.048;5.062;2022-12-24T08:03:25;99812.03;;;9.13;100.00
57376;BME280;44805;45.048;5.062;2022-12-24T08:05:54;99817.44;;;9.22;100.00
57376;BME280;44805;45.048;5.062;2022-12-24T08:08:25;99813.81;;;9.23;100.00
57376;BME280;44805;45.048;5.062;2022-12-24T08:10:53;99862.78;;;9.63;100.00
57376;BME280;44805;45.048;5.062;2022-12-24T08:13:23;99813.00;;;9.22;100.00
57376;BME280;44805;45.048;5.062;2022-12-24T08:15:54;99824.63;;;9.39;100.00
57376;BME280;44805;45.048;5.062;2022-12-24T08:18:25;99909.00;;;9.75;100.00
57376;BME280;44805;45.048;5.062;2022-12-24T08:20:51;99868.47;;;9.58;100.00
57376;BME280;44805;45.048;5.062;2022-12-24T08:26:57;99811.75;;;9.26;100.00
57376;BME280;44805;45.048;5.062;2022-12-24T08:29:25;99819.09;;;9.52;100.00
57376;BME280;44805;45.048;5.062;2022-12-24T08:32:06;99817.97;;;9.45;100.00
57376;BME280;44805;45.048;5.062;2022-12-24T08:35:05;99822.38;;;9.54;100.00
57376;BME280;44805;45.048;5.062;2022-12-24T08:41:19;99815.47;;;9.33;100.00
57376;BME280;44805;45.048;5.062;2022-12-24T08:44:15;99840.78;;;9.64;100.00
57376;BME280;44805;45.048;5.062;2022-12-24T08:46:49;99887.09;;;9.94;100.00
57376;BME280;44805;45.048;5.062;2022-12-24T08:49:20;99832.59;;;9.76;100.00
57376;BME280;44805;45.048;5.062;2022-12-24T08:55:32;99834.63;;;10.02;100.00
57376;BME280;44805;45.048;5.062;2022-12-24T08:57:59;99969.16;;;10.93;100.00
57376;BME280;44805;45.048;5.062;2022-12-24T09:03:23;99832.13;;;10.10;100.00
57376;BME280;44805;45.048;5.062;2022-12-24T09:08:26;99834.16;;;10.36;100.00
57376;BME280;44805;45.048;5.062;2022-12-24T09:11:12;99834.16;;;10.36;100.00
57376;BME280;44805;45.048;5.062;2022-12-24T09:14:09;99984.28;;;11.19;100.00
57376;BME280;44805;45.048;5.062;2022-12-24T09:19:28;99856.84;;;10.37;100.00
57376;BME280;44805;45.048;5.062;2022-12-24T09:25:06;99927.03;;;10.83;100.00
57376;BME280;44805;45.048;5.062;2022-12-24T09:27:36;99871.59;;;10.57;100.00
57376;BME280;44805;45.048;5.062;2022-12-24T09:34:11;99887.09;;;10.60;100.00
57376;BME280;44805;45.048;5.062;2022-12-24T09:36:47;100009.31;;;11.42;100.00
57376;BME280;44805;45.048;5.062;2022-12-24T09:43:18;99891.28;;;10.81;100.00
57376;BME280;44805;45.048;5.062;2022-12-24T09:48:50;99862.13;;;10.92;100.00
57376;BME280;44805;45.048;5.062;2022-12-24T10:02:21;99861.94;;;10.76;100.00
57376;BME280;44805;45.048;5.062;2022-12-24T10:04:47;99930.38;;;11.13;100.00
57376;BME280;44805;45.048;5.062;2022-12-24T10:10:45;99983.13;;;11.77;100.00
57376;BME280;44805;45.048;5.062;2022-12-24T10:13:36;99989.59;;;11.82;100.00
57376;BME280;44805;45.048;5.062;2022-12-24T10:29:21;99931.50;;;11.74;100.00
57376;BME280;44805;45.048;5.062;2022-12-24T10:35:35;99875.72;;;11.51;100.00
57376;BME280;44805;45.048;5.062;2022-12-24T10:38:04;99905.56;;;11.87;100.00
57376;BME280;44805;45.048;5.062;2022-12-24T10:43:31;99857.78;;;11.90;100.00
57376;BME280;44805;45.048;5.062;2022-12-24T12:07:04;99882.56;;;12.50;100.00
57376;BME280;44805;45.048;5.062;2022-12-24T13:26:38;99793.16;;;13.38;100.00
57376;BME280;44805;45.048;5.062;2022-12-24T13:43:24;99742.84;;;13.71;100.00
57376;BME280;44805;45.048;5.062;2022-12-24T16:50:16;99707.88;;;10.16;100.00
57376;BME280;44805;45.048;5.062;2022-12-24T16:53:16;99718.41;;;10.16;100.00
57376;BME280;44805;45.048;5.062;2022-12-24T16:56:02;99823.66;;;10.81;100.00
57376;BME280;44805;45.048;5.062;2022-12-24T16:58:51;99760.97;;;10.39;100.00
57376;BME280;44805;45.048;5.062;2022-12-24T17:01:16;99810.91;;;10.59;100.00
57376;BME280;44805;45.048;5.062;2022-12-24T17:44:34;99771.50;;;9.55;100.00
